sensor_id;sensor_type;location;lat;lon;timestamp;P1;durP1;ratioP1;P2;durP2;ratioP2
18780;SDS011;9519;51.890;8.970;2022-07-23T00:03:08;13.82;;;8.35;;
18780;SDS011;9519;51.890;8.970;2022-07-23T00:08:12;13.80;;;7.82;;
18780;SDS011;9519;51.890;8.970;2022-07-23T00:13:14;10.30;;;7.65;;
18780;SDS011;9519;51.890;8.970;2022-07-23T00:18:16;13.88;;;8.02;;
18780;SDS011;9519;51.890;8.970;2022-07-23T00:23:19;15.15;;;8.40;;
18780;SDS011;9519;51.890;8.970;2022-07-23T00:28:21;14.27;;;7.97;;
18780;SDS011;9519;51.890;8.970;2022-07-23T00:33:23;11.20;;;8.07;;
18780;SDS011;9519;51.890;8.970;2022-07-23T00:38:27;12.77;;;7.22;;
18780;SDS011;9519;51.890;8.970;2022-07-23T00:43:29;13.77;;;7.53;;
18780;SDS011;9519;51.890;8.970;2022-07-23T00:48:31;10.75;;;7.85;;
18780;SDS011;9519;51.890;8.970;2022-07-23T00:53:35;10.52;;;7.55;;
18780;SDS011;9519;51.890;8.970;2022-07-23T00:58:37;13.25;;;8.63;;
18780;SDS011;9519;51.890;8.970;2022-07-23T01:03:43;18.65;;;7.85;;
18780;SDS011;9519;51.890;8.970;2022-07-23T01:08:47;14.90;;;9.32;;
18780;SDS011;9519;51.890;8.970;2022-07-23T01:13:49;17.75;;;9.10;;
18780;SDS011;9519;51.890;8.970;2022-07-23T01:18:51;16.98;;;10.63;;
18780;SDS011;9519;51.890;8.970;2022-07-23T01:23:57;15.23;;;10.65;;
18780;SDS011;9519;51.890;8.970;2022-07-23T01:28:59;15.73;;;9.95;;
18780;SDS011;9519;51.890;8.970;2022-07-23T01:34:02;24.92;;;11.57;;
18780;SDS011;9519;51.890;8.970;2022-07-23T01:39:06;19.45;;;10.48;;
18780;SDS011;9519;51.890;8.970;2022-07-23T01:44:09;15.80;;;10.82;;
18780;SDS011;9519;51.890;8.970;2022-07-23T01:49:11;19.80;;;12.50;;
18780;SDS011;9519;51.890;8.970;2022-07-23T01:54:14;18.42;;;13.32;;
18780;SDS011;9519;51.890;8.970;2022-07-23T01:59:16;25.60;;;11.90;;
18780;SDS011;9519;51.890;8.970;2022-07-23T02:04:19;18.23;;;11.23;;
18780;SDS011;9519;51.890;8.970;2022-07-23T02:09:24;16.73;;;10.93;;
18780;SDS011;9519;51.890;8.970;2022-07-23T02:14:26;14.90;;;10.77;;
18780;SDS011;9519;51.890;8.970;2022-07-23T02:19:28;14.90;;;10.40;;
18780;SDS011;9519;51.890;8.970;2022-07-23T02:24:32;17.58;;;11.18;;
18780;SDS011;9519;51.890;8.970;2022-07-23T02:29:34;19.02;;;11.45;;
18780;SDS011;9519;51.890;8.970;2022-07-23T02:34:36;20.98;;;12.27;;
18780;SDS011;9519;51.890;8.970;2022-07-23T02:39:39;16.67;;;11.55;;
18780;SDS011;9519;51.890;8.970;2022-07-23T02:44:42;15.40;;;10.98;;
18780;SDS011;9519;51.890;8.970;2022-07-23T02:49:44;13.60;;;11.57;;
18780;SDS011;9519;51.890;8.970;2022-07-23T02:54:48;16.30;;;12.15;;
18780;SDS011;9519;51.890;8.970;2022-07-23T02:59:50;21.02;;;12.27;;
18780;SDS011;9519;51.890;8.970;2022-07-23T03:04:52;17.55;;;11.45;;
18780;SDS011;9519;51.890;8.970;2022-07-23T03:09:56;17.65;;;11.60;;
18780;SDS011;9519;51.890;8.970;2022-07-23T03:14:58;20.17;;;12.43;;
18780;SDS011;9519;51.890;8.970;2022-07-23T03:20:00;18.05;;;12.77;;
18780;SDS011;9519;51.890;8.970;2022-07-23T03:25:04;20.42;;;11.65;;
18780;SDS011;9519;51.890;8.970;2022-07-23T03:30:07;23.63;;;14.95;;
18780;SDS011;9519;51.890;8.970;2022-07-23T03:35:10;19.42;;;13.75;;
18780;SDS011;9519;51.890;8.970;2022-07-23T03:40:14;20.73;;;13.23;;
18780;SDS011;9519;51.890;8.970;2022-07-23T03:45:16;21.55;;;13.95;;
18780;SDS011;9519;51.890;8.970;2022-07-23T03:50:18;27.83;;;13.70;;
18780;SDS011;9519;51.890;8.970;2022-07-23T03:55:22;22.90;;;12.52;;
18780;SDS011;9519;51.890;8.970;2022-07-23T04:00:25;22.88;;;13.75;;
18780;SDS011;9519;51.890;8.970;2022-07-23T04:05:27;37.93;;;12.47;;
18780;SDS011;9519;51.890;8.970;2022-07-23T04:10:30;15.15;;;11.40;;
18780;SDS011;9519;51.890;8.970;2022-07-23T04:15:32;19.88;;;12.52;;
18780;SDS011;9519;51.890;8.970;2022-07-23T04:20:34;15.48;;;10.75;;
18780;SDS011;9519;51.890;8.970;2022-07-23T04:25:38;65.65;;;14.15;;
18780;SDS011;9519;51.890;8.970;2022-07-23T04:30:40;20.15;;;13.55;;
18780;SDS011;9519;51.890;8.970;2022-07-23T04:35:42;22.88;;;13.07;;
18780;SDS011;9519;51.890;8.970;2022-07-23T04:40:46;127.60;;;13.33;;
18780;SDS011;9519;51.890;8.970;2022-07-23T04:45:48;159.70;;;10.30;;
18780;SDS011;9519;51.890;8.970;2022-07-23T04:50:50;53.03;;;8.15;;
18780;SDS011;9519;51.890;8.970;2022-07-23T04:55:54;224.83;;;13.67;;
18780;SDS011;9519;51.890;8.970;2022-07-23T05:00:56;169.13;;;15.17;;
18780;SDS011;9519;51.890;8.970;2022-07-23T05:05:58;158.00;;;15.07;;
18780;SDS011;9519;51.890;8.970;2022-07-23T05:11:02;204.73;;;17.65;;
18780;SDS011;9519;51.890;8.970;2022-07-23T05:16:04;250.40;;;23.45;;
18780;SDS011;9519;51.890;8.970;2022-07-23T05:21:07;146.40;;;21.80;;
18780;SDS011;9519;51.890;8.970;2022-07-23T05:26:10;122.30;;;20.92;;
18780;SDS011;9519;51.890;8.970;2022-07-23T05:31:12;197.95;;;24.60;;
18780;SDS011;9519;51.890;8.970;2022-07-23T05:36:14;94.07;;;24.08;;
18780;SDS011;9519;51.890;8.970;2022-07-23T05:41:18;33.47;;;21.90;;
18780;SDS011;9519;51.890;8.970;2022-07-23T05:46:20;31.65;;;25.00;;
18780;SDS011;9519;51.890;8.970;2022-07-23T05:51:23;35.17;;;25.97;;
18780;SDS011;9519;51.890;8.970;2022-07-23T05:56:27;34.47;;;26.87;;
18780;SDS011;9519;51.890;8.970;2022-07-23T06:01:29;37.38;;;25.00;;
18780;SDS011;9519;51.890;8.970;2022-07-23T06:06:31;32.03;;;25.42;;
18780;SDS011;9519;51.890;8.970;2022-07-23T06:11:35;34.63;;;23.92;;
18780;SDS011;9519;51.890;8.970;2022-07-23T06:16:37;31.58;;;25.15;;
18780;SDS011;9519;51.890;8.970;2022-07-23T06:21:39;35.58;;;23.45;;
18780;SDS011;9519;51.890;8.970;2022-07-23T06:26:42;33.15;;;25.40;;
18780;SDS011;9519;51.890;8.970;2022-07-23T06:31:45;29.55;;;22.67;;
18780;SDS011;9519;51.890;8.970;2022-07-23T06:36:47;30.60;;;23.65;;
18780;SDS011;9519;51.890;8.970;2022-07-23T06:41:50;27.45;;;23.08;;
18780;SDS011;9519;51.890;8.970;2022-07-23T06:46:53;33.00;;;24.65;;
18780;SDS011;9519;51.890;8.970;2022-07-23T06:51:55;29.08;;;22.30;;
18780;SDS011;9519;51.890;8.970;2022-07-23T06:56:58;31.80;;;22.77;;
18780;SDS011;9519;51.890;8.970;2022-07-23T07:02:01;29.98;;;23.60;;
18780;SDS011;9519;51.890;8.970;2022-07-23T07:07:04;30.15;;;24.45;;
18780;SDS011;9519;51.890;8.970;2022-07-23T07:12:08;29.73;;;23.48;;
18780;SDS011;9519;51.890;8.970;2022-07-23T07:17:12;24.83;;;21.10;;
18780;SDS011;9519;51.890;8.970;2022-07-23T07:22:15;26.30;;;18.33;;
18780;SDS011;9519;51.890;8.970;2022-07-23T07:27:18;19.15;;;14.48;;
18780;SDS011;9519;51.890;8.970;2022-07-23T07:32:21;19.13;;;15.50;;
18780;SDS011;9519;51.890;8.970;2022-07-23T07:37:23;18.75;;;14.82;;
18780;SDS011;9519;51.890;8.970;2022-07-23T07:42:27;18.83;;;12.40;;
18780;SDS011;9519;51.890;8.970;2022-07-23T07:47:29;14.98;;;10.98;;
18780;SDS011;9519;51.890;8.970;2022-07-23T07:52:31;14.48;;;10.32;;
18780;SDS011;9519;51.890;8.970;2022-07-23T07:57:34;16.42;;;10.00;;
18780;SDS011;9519;51.890;8.970;2022-07-23T08:02:41;12.63;;;9.90;;
18780;SDS011;9519;51.890;8.970;2022-07-23T08:07:45;12.93;;;9.25;;
18780;SDS011;9519;51.890;8.970;2022-07-23T08:12:49;12.88;;;8.40;;
18780;SDS011;9519;51.890;8.970;2022-07-23T08:17:55;17.00;;;8.57;;
18780;SDS011;9519;51.890;8.970;2022-07-23T08:22:59;10.55;;;7.90;;
18780;SDS011;9519;51.890;8.970;2022-07-23T08:28:07;11.35;;;7.63;;
18780;SDS011;9519;51.890;8.970;2022-07-23T08:33:11;10.80;;;6.45;;
18780;SDS011;9519;51.890;8.970;2022-07-23T08:38:16;9.57;;;6.20;;
18780;SDS011;9519;51.890;8.970;2022-07-23T08:43:28;13.35;;;6.53;;
18780;SDS011;9519;51.890;8.970;2022-07-23T08:48:35;13.80;;;7.03;;
18780;SDS011;9519;51.890;8.970;2022-07-23T08:53:37;13.82;;;8.57;;
18780;SDS011;9519;51.890;8.970;2022-07-23T08:58:42;8.98;;;6.30;;
18780;SDS011;9519;51.890;8.970;2022-07-23T09:03:44;10.90;;;6.55;;
18780;SDS011;9519;51.890;8.970;2022-07-23T09:08:46;12.80;;;6.47;;
18780;SDS011;9519;51.890;8.970;2022-07-23T09:13:50;9.27;;;5.57;;
18780;SDS011;9519;51.890;8.970;2022-07-23T09:18:56;8.23;;;5.20;;
18780;SDS011;9519;51.890;8.970;2022-07-23T09:24:02;10.23;;;6.15;;
18780;SDS011;9519;51.890;8.970;2022-07-23T09:29:12;7.30;;;5.82;;
18780;SDS011;9519;51.890;8.970;2022-07-23T09:34:19;8.82;;;5.60;;
18780;SDS011;9519;51.890;8.970;2022-07-23T09:39:27;10.85;;;6.03;;
18780;SDS011;9519;51.890;8.970;2022-07-23T09:44:33;9.50;;;4.82;;
18780;SDS011;9519;51.890;8.970;2022-07-23T09:49:57;8.10;;;5.22;;
18780;SDS011;9519;51.890;8.970;2022-07-23T09:55:02;9.32;;;4.63;;
18780;SDS011;9519;51.890;8.970;2022-07-23T10:00:09;10.48;;;5.10;;
18780;SDS011;9519;51.890;8.970;2022-07-23T10:05:12;7.97;;;3.63;;
18780;SDS011;9519;51.890;8.970;2022-07-23T10:10:16;7.47;;;4.72;;
18780;SDS011;9519;51.890;8.970;2022-07-23T10:15:21;7.30;;;3.95;;
18780;SDS011;9519;51.890;8.970;2022-07-23T10:20:23;7.03;;;3.60;;
18780;SDS011;9519;51.890;8.970;2022-07-23T10:25:27;9.07;;;4.47;;
18780;SDS011;9519;51.890;8.970;2022-07-23T10:30:41;6.90;;;3.50;;
18780;SDS011;9519;51.890;8.970;2022-07-23T10:35:54;8.38;;;3.80;;
18780;SDS011;9519;51.890;8.970;2022-07-23T10:41:05;6.07;;;3.83;;
18780;SDS011;9519;51.890;8.970;2022-07-23T10:46:22;8.85;;;3.80;;
18780;SDS011;9519;51.890;8.970;2022-07-23T10:51:32;8.60;;;3.70;;
18780;SDS011;9519;51.890;8.970;2022-07-23T11:07:35;6.28;;;2.80;;
18780;SDS011;9519;51.890;8.970;2022-07-23T11:19:02;8.27;;;3.00;;
18780;SDS011;9519;51.890;8.970;2022-07-23T11:24:09;5.63;;;2.67;;
18780;SDS011;9519;51.890;8.970;2022-07-23T11:35:01;7.10;;;2.58;;
18780;SDS011;9519;51.890;8.970;2022-07-23T11:40:05;5.63;;;2.47;;
18780;SDS011;9519;51.890;8.970;2022-07-23T11:45:10;4.97;;;2.30;;
18780;SDS011;9519;51.890;8.970;2022-07-23T11:50:14;5.22;;;2.30;;
18780;SDS011;9519;51.890;8.970;2022-07-23T11:55:16;6.40;;;2.08;;
18780;SDS011;9519;51.890;8.970;2022-07-23T12:00:20;4.75;;;2.28;;
18780;SDS011;9519;51.890;8.970;2022-07-23T12:05:27;4.45;;;2.00;;
18780;SDS011;9519;51.890;8.970;2022-07-23T12:10:33;4.68;;;2.22;;
18780;SDS011;9519;51.890;8.970;2022-07-23T12:15:39;6.85;;;2.50;;
18780;SDS011;9519;51.890;8.970;2022-07-23T12:20:46;6.60;;;2.10;;
18780;SDS011;9519;51.890;8.970;2022-07-23T12:25:53;5.20;;;1.90;;
18780;SDS011;9519;51.890;8.970;2022-07-23T12:30:56;6.35;;;1.73;;
18780;SDS011;9519;51.890;8.970;2022-07-23T12:36:03;6.10;;;1.98;;
18780;SDS011;9519;51.890;8.970;2022-07-23T12:41:08;3.22;;;1.52;;
18780;SDS011;9519;51.890;8.970;2022-07-23T12:46:13;5.88;;;1.80;;
18780;SDS011;9519;51.890;8.970;2022-07-23T12:51:21;3.78;;;1.60;;
18780;SDS011;9519;51.890;8.970;2022-07-23T12:56:26;5.22;;;2.08;;
18780;SDS011;9519;51.890;8.970;2022-07-23T13:01:31;5.35;;;2.20;;
18780;SDS011;9519;51.890;8.970;2022-07-23T13:06:37;2.85;;;1.33;;
18780;SDS011;9519;51.890;8.970;2022-07-23T13:11:42;4.70;;;1.88;;
18780;SDS011;9519;51.890;8.970;2022-07-23T13:16:45;3.92;;;1.50;;
18780;SDS011;9519;51.890;8.970;2022-07-23T13:21:50;4.43;;;1.70;;
18780;SDS011;9519;51.890;8.970;2022-07-23T13:26:52;6.32;;;2.25;;
18780;SDS011;9519;51.890;8.970;2022-07-23T13:31:54;5.15;;;1.63;;
18780;SDS011;9519;51.890;8.970;2022-07-23T13:36:57;4.72;;;1.30;;
18780;SDS011;9519;51.890;8.970;2022-07-23T13:42:00;3.10;;;1.17;;
18780;SDS011;9519;51.890;8.970;2022-07-23T13:47:02;2.92;;;1.40;;
18780;SDS011;9519;51.890;8.970;2022-07-23T13:52:06;5.00;;;1.52;;
18780;SDS011;9519;51.890;8.970;2022-07-23T13:57:08;2.70;;;1.30;;
18780;SDS011;9519;51.890;8.970;2022-07-23T14:02:11;2.53;;;1.42;;
18780;SDS011;9519;51.890;8.970;2022-07-23T14:07:19;2.28;;;1.13;;
18780;SDS011;9519;51.890;8.970;2022-07-23T14:12:22;2.53;;;1.17;;
18780;SDS011;9519;51.890;8.970;2022-07-23T14:17:24;2.15;;;0.90;;
18780;SDS011;9519;51.890;8.970;2022-07-23T14:22:28;4.28;;;1.20;;
18780;SDS011;9519;51.890;8.970;2022-07-23T14:27:32;3.83;;;1.60;;
18780;SDS011;9519;51.890;8.970;2022-07-23T14:32:35;3.97;;;1.30;;
18780;SDS011;9519;51.890;8.970;2022-07-23T14:37:39;3.83;;;1.20;;
18780;SDS011;9519;51.890;8.970;2022-07-23T14:42:42;2.90;;;0.90;;
18780;SDS011;9519;51.890;8.970;2022-07-23T14:47:44;2.45;;;0.90;;
18780;SDS011;9519;51.890;8.970;2022-07-23T14:52:48;3.13;;;1.40;;
18780;SDS011;9519;51.890;8.970;2022-07-23T14:57:50;2.05;;;0.85;;
18780;SDS011;9519;51.890;8.970;2022-07-23T15:02:52;4.28;;;0.88;;
18780;SDS011;9519;51.890;8.970;2022-07-23T15:07:56;4.07;;;1.20;;
18780;SDS011;9519;51.890;8.970;2022-07-23T15:12:59;3.38;;;1.08;;
18780;SDS011;9519;51.890;8.970;2022-07-23T15:18:01;4.20;;;1.02;;
18780;SDS011;9519;51.890;8.970;2022-07-23T15:23:04;3.03;;;1.00;;
18780;SDS011;9519;51.890;8.970;2022-07-23T15:28:07;3.75;;;0.90;;
18780;SDS011;9519;51.890;8.970;2022-07-23T15:33:09;2.72;;;0.88;;
18780;SDS011;9519;51.890;8.970;2022-07-23T15:38:13;2.45;;;1.08;;
18780;SDS011;9519;51.890;8.970;2022-07-23T15:43:15;3.60;;;1.00;;
18780;SDS011;9519;51.890;8.970;2022-07-23T15:48:17;3.08;;;1.02;;
18780;SDS011;9519;51.890;8.970;2022-07-23T15:53:22;2.08;;;0.90;;
18780;SDS011;9519;51.890;8.970;2022-07-23T15:58:24;2.90;;;0.80;;
18780;SDS011;9519;51.890;8.970;2022-07-23T16:03:28;3.13;;;0.93;;
18780;SDS011;9519;51.890;8.970;2022-07-23T16:08:31;4.40;;;0.80;;
18780;SDS011;9519;51.890;8.970;2022-07-23T16:13:34;3.60;;;1.13;;
18780;SDS011;9519;51.890;8.970;2022-07-23T16:18:36;3.50;;;1.00;;
18780;SDS011;9519;51.890;8.970;2022-07-23T16:23:40;3.22;;;0.90;;
18780;SDS011;9519;51.890;8.970;2022-07-23T16:28:42;4.55;;;1.50;;
18780;SDS011;9519;51.890;8.970;2022-07-23T16:33:45;3.90;;;0.90;;
18780;SDS011;9519;51.890;8.970;2022-07-23T16:38:49;2.47;;;1.20;;
18780;SDS011;9519;51.890;8.970;2022-07-23T16:43:51;4.55;;;1.45;;
18780;SDS011;9519;51.890;8.970;2022-07-23T16:48:53;3.83;;;1.17;;
18780;SDS011;9519;51.890;8.970;2022-07-23T16:53:57;3.08;;;0.98;;
18780;SDS011;9519;51.890;8.970;2022-07-23T16:58:59;2.58;;;1.10;;
18780;SDS011;9519;51.890;8.970;2022-07-23T17:04:01;2.72;;;0.90;;
18780;SDS011;9519;51.890;8.970;2022-07-23T17:09:06;3.85;;;1.00;;
18780;SDS011;9519;51.890;8.970;2022-07-23T17:14:09;4.43;;;1.00;;
18780;SDS011;9519;51.890;8.970;2022-07-23T17:19:12;3.38;;;1.10;;
18780;SDS011;9519;51.890;8.970;2022-07-23T17:24:17;3.80;;;1.45;;
18780;SDS011;9519;51.890;8.970;2022-07-23T17:29:19;2.60;;;1.10;;
18780;SDS011;9519;51.890;8.970;2022-07-23T17:34:21;6.47;;;1.05;;
18780;SDS011;9519;51.890;8.970;2022-07-23T17:39:25;2.45;;;1.10;;
18780;SDS011;9519;51.890;8.970;2022-07-23T17:44:30;2.83;;;1.00;;
18780;SDS011;9519;51.890;8.970;2022-07-23T17:49:32;4.15;;;1.50;;
18780;SDS011;9519;51.890;8.970;2022-07-23T17:54:36;2.63;;;1.15;;
18780;SDS011;9519;51.890;8.970;2022-07-23T17:59:38;2.17;;;0.90;;
18780;SDS011;9519;51.890;8.970;2022-07-23T18:04:40;4.15;;;1.90;;
18780;SDS011;9519;51.890;8.970;2022-07-23T18:09:45;3.72;;;1.20;;
18780;SDS011;9519;51.890;8.970;2022-07-23T18:14:47;3.70;;;1.00;;
18780;SDS011;9519;51.890;8.970;2022-07-23T18:19:50;3.25;;;1.17;;
18780;SDS011;9519;51.890;8.970;2022-07-23T18:24:53;3.85;;;1.30;;
18780;SDS011;9519;51.890;8.970;2022-07-23T18:29:55;3.22;;;0.90;;
18780;SDS011;9519;51.890;8.970;2022-07-23T18:34:58;2.33;;;1.20;;
18780;SDS011;9519;51.890;8.970;2022-07-23T18:40:02;3.33;;;1.30;;
18780;SDS011;9519;51.890;8.970;2022-07-23T18:45:07;1.95;;;0.98;;
18780;SDS011;9519;51.890;8.970;2022-07-23T18:50:11;4.82;;;1.20;;
18780;SDS011;9519;51.890;8.970;2022-07-23T18:55:15;2.65;;;1.10;;
18780;SDS011;9519;51.890;8.970;2022-07-23T19:00:18;2.58;;;1.20;;
18780;SDS011;9519;51.890;8.970;2022-07-23T19:05:22;3.60;;;1.10;;
18780;SDS011;9519;51.890;8.970;2022-07-23T19:10:26;2.83;;;1.08;;
18780;SDS011;9519;51.890;8.970;2022-07-23T19:15:28;4.95;;;1.10;;
18780;SDS011;9519;51.890;8.970;2022-07-23T19:20:31;2.83;;;1.00;;
18780;SDS011;9519;51.890;8.970;2022-07-23T19:25:35;4.25;;;1.27;;
18780;SDS011;9519;51.890;8.970;2022-07-23T19:30:37;4.57;;;1.65;;
18780;SDS011;9519;51.890;8.970;2022-07-23T19:35:40;3.80;;;1.20;;
18780;SDS011;9519;51.890;8.970;2022-07-23T19:40:44;5.47;;;1.40;;
18780;SDS011;9519;51.890;8.970;2022-07-23T19:45:46;5.18;;;1.10;;
18780;SDS011;9519;51.890;8.970;2022-07-23T19:50:50;1.98;;;0.98;;
18780;SDS011;9519;51.890;8.970;2022-07-23T19:55:55;3.13;;;1.00;;
18780;SDS011;9519;51.890;8.970;2022-07-23T20:00:57;2.60;;;1.20;;
18780;SDS011;9519;51.890;8.970;2022-07-23T20:05:59;2.50;;;1.15;;
18780;SDS011;9519;51.890;8.970;2022-07-23T20:11:03;4.45;;;1.40;;
18780;SDS011;9519;51.890;8.970;2022-07-23T20:16:08;1.92;;;1.23;;
18780;SDS011;9519;51.890;8.970;2022-07-23T20:21:10;3.05;;;1.60;;
18780;SDS011;9519;51.890;8.970;2022-07-23T20:26:14;3.78;;;1.40;;
18780;SDS011;9519;51.890;8.970;2022-07-23T20:31:17;5.88;;;1.40;;
18780;SDS011;9519;51.890;8.970;2022-07-23T20:36:19;2.35;;;1.20;;
18780;SDS011;9519;51.890;8.970;2022-07-23T20:41:23;3.42;;;1.58;;
18780;SDS011;9519;51.890;8.970;2022-07-23T20:46:25;3.13;;;1.50;;
18780;SDS011;9519;51.890;8.970;2022-07-23T20:51:27;5.50;;;1.50;;
18780;SDS011;9519;51.890;8.970;2022-07-23T20:56:31;6.45;;;1.33;;
18780;SDS011;9519;51.890;8.970;2022-07-23T21:01:34;4.03;;;1.55;;
18780;SDS011;9519;51.890;8.970;2022-07-23T21:06:36;2.80;;;1.30;;
18780;SDS011;9519;51.890;8.970;2022-07-23T21:11:39;3.10;;;1.60;;
18780;SDS011;9519;51.890;8.970;2022-07-23T21:16:42;5.05;;;1.83;;
18780;SDS011;9519;51.890;8.970;2022-07-23T21:21:44;3.45;;;1.65;;
18780;SDS011;9519;51.890;8.970;2022-07-23T21:26:48;4.18;;;1.80;;
18780;SDS011;9519;51.890;8.970;2022-07-23T21:31:50;5.65;;;2.17;;
18780;SDS011;9519;51.890;8.970;2022-07-23T21:36:54;5.63;;;2.17;;
18780;SDS011;9519;51.890;8.970;2022-07-23T21:41:57;3.70;;;1.92;;
18780;SDS011;9519;51.890;8.970;2022-07-23T21:47:00;6.20;;;2.28;;
18780;SDS011;9519;51.890;8.970;2022-07-23T21:52:02;4.25;;;2.00;;
18780;SDS011;9519;51.890;8.970;2022-07-23T21:57:06;5.93;;;2.33;;
18780;SDS011;9519;51.890;8.970;2022-07-23T22:02:08;3.88;;;2.00;;
18780;SDS011;9519;51.890;8.970;2022-07-23T22:07:10;5.18;;;2.00;;
18780;SDS011;9519;51.890;8.970;2022-07-23T22:12:15;4.72;;;2.28;;
18780;SDS011;9519;51.890;8.970;2022-07-23T22:17:17;4.40;;;2.20;;
18780;SDS011;9519;51.890;8.970;2022-07-23T22:22:19;4.88;;;1.88;;
18780;SDS011;9519;51.890;8.970;2022-07-23T22:27:23;4.00;;;2.22;;
18780;SDS011;9519;51.890;8.970;2022-07-23T22:32:25;4.82;;;2.00;;
18780;SDS011;9519;51.890;8.970;2022-07-23T22:37:27;4.30;;;2.17;;
18780;SDS011;9519;51.890;8.970;2022-07-23T22:42:31;3.88;;;2.40;;
18780;SDS011;9519;51.890;8.970;2022-07-23T22:47:33;4.60;;;2.42;;
18780;SDS011;9519;51.890;8.970;2022-07-23T22:52:37;3.58;;;2.05;;
18780;SDS011;9519;51.890;8.970;2022-07-23T22:57:41;5.40;;;2.63;;
18780;SDS011;9519;51.890;8.970;2022-07-23T23:02:43;6.60;;;2.33;;
18780;SDS011;9519;51.890;8.970;2022-07-23T23:07:46;6.60;;;2.70;;
18780;SDS011;9519;51.890;8.970;2022-07-23T23:12:49;6.22;;;2.33;;
18780;SDS011;9519;51.890;8.970;2022-07-23T23:17:52;5.75;;;2.50;;
18780;SDS011;9519;51.890;8.970;2022-07-23T23:22:54;5.45;;;2.67;;
18780;SDS011;9519;51.890;8.970;2022-07-23T23:27:57;5.80;;;2.80;;
18780;SDS011;9519;51.890;8.970;2022-07-23T23:32:59;8.02;;;2.78;;
18780;SDS011;9519;51.890;8.970;2022-07-23T23:38:02;5.10;;;2.80;;
18780;SDS011;9519;51.890;8.970;2022-07-23T23:43:05;4.75;;;2.40;;
18780;SDS011;9519;51.890;8.970;2022-07-23T23:48:07;5.10;;;2.28;;
18780;SDS011;9519;51.890;8.970;2022-07-23T23:53:09;6.03;;;2.55;;
18780;SDS011;9519;51.890;8.970;2022-07-23T23:58:13;6.72;;;2.28;;
